METAR Data
IDs: Format: Raw Decoded Include TAF

Data at: 1456 UTC 25 Jan 2020

METAR for:KNYG (Quantico (MCAF), VA, US)
Text:KNYG 251442Z AUTO 29005KT 10SM BKN007 OVC012 09/08 A2988 RMK AO2 CIG 005V009 T00940083
Temperature: 9.4°C ( 49°F)
Dewpoint: 8.3°C ( 47°F) [RH = 93%]
Pressure (altimeter):29.88 inches Hg (1011.9 mb)
Winds:from the WNW (290 degrees) at 6 MPH (5 knots; 2.6 m/s)
Visibility:10 or more sm (16+ km)
Ceiling:700 feet AGL
Clouds: broken clouds at 700 feet AGL, overcast cloud deck at 1200 feet AGL
QC Flag:automated observation with no human augmentation